Time;durP1;ratioP1;P1;durP2;ratioP2;P2;SDS_P1;SDS_P2;PMS_P1;PMS_P2;Temp;Humidity;BMP_temperature;BMP_pressure;BME280_temperature;BME280_humidity;BME280_pressure;Samples;Min_cycle;Max_cycle;Signal;HPM_P1;HPM_P2
2022/11/10 00:00:10;;;;;;;3.70;2.67;;;;;;;11.68;85.70;101259.66;6067566;29;20252;-75
2022/11/10 00:03:50;;;;;;;5.13;2.50;;;;;;;11.69;85.46;101264.06;6075213;29;20240;-74
2022/11/10 00:07:29;;;;;;;4.97;3.03;;;;;;;11.68;85.89;101268.59;6083927;29;20319;-73
2022/11/10 00:11:09;;;;;;;3.27;2.33;;;;;;;11.66;85.72;101285.91;6047498;29;20237;-74
2022/11/10 00:18:48;;;;;;;2.50;2.30;;;;;;;11.70;86.10;101300.88;6074358;29;20574;-76
2022/11/10 00:22:27;;;;;;;3.57;2.07;;;;;;;11.61;86.79;101294.41;6081702;29;20248;-74
2022/11/10 00:26:15;;;;;;;2.60;1.83;;;;;;;11.57;86.28;101300.19;6070206;29;20658;-74
2022/11/10 00:29:54;;;;;;;3.97;2.03;;;;;;;11.52;86.56;101305.13;6058878;29;20252;-74
2022/11/10 00:33:34;;;;;;;4.63;2.10;;;;;;;11.43;87.62;101309.47;6074670;29;20236;-73
2022/11/10 00:37:15;;;;;;;2.80;2.60;;;;;;;11.39;87.88;101317.97;6082120;29;20256;-74
2022/11/10 00:40:54;;;;;;;7.70;3.00;;;;;;;11.42;87.21;101310.47;6067359;29;20244;-73
2022/11/10 00:44:33;;;;;;;2.83;2.63;;;;;;;11.45;87.22;101333.66;6072744;29;20240;-73
2022/11/10 00:48:13;;;;;;;3.47;2.70;;;;;;;11.39;87.21;101326.91;6079581;29;20240;-75
2022/11/10 00:51:52;;;;;;;6.13;2.57;;;;;;;11.42;87.00;101332.06;6084321;29;20260;-74
2022/11/10 00:55:33;;;;;;;2.17;1.90;;;;;;;11.44;86.48;101337.31;6068335;29;20244;-74
2022/11/10 00:59:13;;;;;;;4.00;3.10;;;;;;;11.43;87.02;101332.94;6070699;29;20232;-74
2022/11/10 01:02:52;;;;;;;4.60;1.97;;;;;;;11.39;86.57;101331.47;6081167;29;20279;-74
2022/11/10 01:06:32;;;;;;;4.20;2.40;;;;;;;11.33;86.76;101330.13;6083274;29;20252;-74
2022/11/10 01:10:12;;;;;;;2.13;1.93;;;;;;;11.23;87.02;101345.41;6067765;29;20224;-74
2022/11/10 01:13:54;;;;;;;3.60;2.03;;;;;;;11.27;86.60;101349.53;6066361;29;20240;-76
2022/11/10 01:17:34;;;;;;;3.23;3.03;;;;;;;11.24;87.25;101350.66;6082995;29;20307;-74
2022/11/10 01:21:13;;;;;;;3.93;2.20;;;;;;;11.20;86.80;101362.69;6071464;29;20224;-73
2022/11/10 01:24:53;;;;;;;7.63;3.43;;;;;;;11.16;86.75;101377.44;6068161;29;20290;-73
2022/11/10 01:28:34;;;;;;;6.43;2.33;;;;;;;11.10;86.99;101375.25;6073629;29;20256;-72
2022/11/10 01:32:14;;;;;;;4.83;3.50;;;;;;;11.11;86.84;101373.41;6083433;29;20256;-74
2022/11/10 01:35:54;;;;;;;3.87;2.00;;;;;;;11.05;86.73;101390.09;6070130;29;20270;-73
2022/11/10 01:39:33;;;;;;;2.97;2.00;;;;;;;11.01;86.68;101394.03;6071419;29;20240;-74
2022/11/10 01:43:13;;;;;;;2.60;2.43;;;;;;;10.97;86.67;101406.91;6083696;29;20268;-74
2022/11/10 01:46:52;;;;;;;2.20;2.00;;;;;;;11.01;86.49;101388.66;6083286;29;20232;-74
2022/11/10 01:50:37;;;;;;;5.67;3.67;;;;;;;10.94;86.39;101396.38;6074587;29;20232;-73
2022/11/10 01:54:21;;;;;;;9.30;3.43;;;;;;;10.90;87.22;101411.09;6074268;29;20234;-73
2022/11/10 01:58:01;;;;;;;4.00;2.10;;;;;;;10.89;86.82;101409.38;6086169;29;20225;-74
2022/11/10 02:01:41;;;;;;;3.67;2.17;;;;;;;10.87;87.18;101414.03;6081700;29;20240;-74
2022/11/10 02:05:22;;;;;;;3.70;2.10;;;;;;;10.87;86.81;101419.44;6074990;29;20628;-74
2022/11/10 02:09:04;;;;;;;8.13;2.10;;;;;;;10.89;86.71;101435.53;6077493;29;20631;-73
2022/11/10 02:12:44;;;;;;;2.90;2.10;;;;;;;10.83;86.97;101420.66;6082485;29;20224;-74
2022/11/10 02:16:24;;;;;;;7.30;2.60;;;;;;;10.81;87.19;101436.13;6073694;29;20232;-73
2022/11/10 02:20:06;;;;;;;3.73;1.97;;;;;;;10.77;87.00;101437.34;6076379;29;20725;-74
2022/11/10 02:23:49;;;;;;;2.70;2.07;;;;;;;10.78;87.66;101438.22;6079558;29;20248;-73
2022/11/10 02:27:29;;;;;;;2.70;1.97;;;;;;;10.73;87.35;101454.75;6085089;29;20498;-74
2022/11/10 02:31:09;;;;;;;4.67;1.90;;;;;;;10.67;87.72;101462.47;6072515;29;20264;-75
2022/11/10 02:34:49;;;;;;;3.80;2.60;;;;;;;10.62;88.17;101457.44;6071216;29;20232;-74
2022/11/10 02:38:28;;;;;;;3.87;1.93;;;;;;;10.65;87.15;101465.31;6073303;29;20283;-75
2022/11/10 02:42:09;;;;;;;4.50;2.90;;;;;;;10.62;87.34;101460.16;6079783;29;20516;-73
2022/11/10 02:45:49;;;;;;;2.87;2.07;;;;;;;10.54;88.27;101462.59;6068576;29;20244;-74
2022/11/10 02:49:29;;;;;;;3.57;2.20;;;;;;;10.54;88.25;101468.00;6075929;29;20232;-74
2022/11/10 02:53:08;;;;;;;3.53;2.80;;;;;;;10.50;88.53;101463.81;6081875;29;20240;-75
2022/11/10 02:56:47;;;;;;;10.13;2.93;;;;;;;10.45;88.44;101469.56;6079862;29;20240;-74
2022/11/10 03:00:30;;;;;;;3.50;2.57;;;;;;;10.44;88.90;101469.69;6073577;29;20240;-74
2022/11/10 03:04:09;;;;;;;3.97;2.63;;;;;;;10.52;88.53;101472.66;6070476;29;20660;-74
2022/11/10 03:07:52;;;;;;;3.60;2.87;;;;;;;10.42;89.00;101477.03;6083196;29;20236;-74
2022/11/10 03:11:32;;;;;;;3.70;2.33;;;;;;;10.35;89.27;101468.59;6083053;29;20236;-73
2022/11/10 03:15:12;;;;;;;5.17;3.37;;;;;;;10.38;88.98;101483.66;6069751;29;20611;-73
2022/11/10 03:18:53;;;;;;;2.60;2.40;;;;;;;10.36;88.59;101477.53;6073011;29;20244;-74
2022/11/10 03:22:33;;;;;;;5.03;2.50;;;;;;;10.38;88.85;101502.53;6082304;29;20239;-73
2022/11/10 03:26:13;;;;;;;5.80;4.27;;;;;;;10.37;88.71;101501.66;6067795;29;20678;-73
2022/11/10 03:29:52;;;;;;;4.97;4.57;;;;;;;10.35;89.25;101513.53;6070623;29;20840;-73
2022/11/10 03:33:31;;;;;;;4.87;2.63;;;;;;;10.31;89.25;101526.41;6071653;29;20232;-74
2022/11/10 03:37:12;;;;;;;10.03;4.27;;;;;;;10.29;89.27;101514.88;6078184;29;20593;-73
2022/11/10 03:40:51;;;;;;;7.23;3.50;;;;;;;10.32;89.34;101519.19;6070744;29;20500;-74
2022/11/10 03:44:31;;;;;;;5.93;3.23;;;;;;;10.34;89.24;101519.91;6071390;29;20243;-75
2022/11/10 03:48:10;;;;;;;5.40;4.30;;;;;;;10.29;89.21;101519.41;6080641;29;20236;-73
2022/11/10 03:51:50;;;;;;;6.20;3.67;;;;;;;10.25;89.24;101516.09;6081406;29;20240;-73
2022/11/10 03:55:30;;;;;;;9.67;3.43;;;;;;;10.26;89.41;101519.66;6066199;29;20232;-73
2022/11/10 03:59:09;;;;;;;11.63;4.27;;;;;;;10.28;89.29;101525.78;6072437;29;20879;-77
2022/11/10 04:02:49;;;;;;;11.83;3.73;;;;;;;10.28;89.42;101526.63;6083075;29;20458;-73
2022/11/10 04:10:25;;;;;;;6.60;4.13;;;;;;;10.41;89.54;101535.47;6071037;29;20716;-73
2022/11/10 04:21:57;;;;;;;6.33;4.60;;;;;;;10.42;89.52;101580.34;6076736;29;20233;-73
2022/11/10 04:26:27;;;;;;;5.70;4.50;;;;;;;10.43;89.71;101573.09;6070478;29;20510;-73
2022/11/10 04:29:36;;;;;;;5.33;4.63;;;;;;;10.52;89.10;101590.38;6075069;29;20576;-73
2022/11/10 04:33:16;;;;;;;7.33;6.03;;;;;;;10.54;89.52;101588.44;6085798;29;20261;-75
2022/11/10 04:36:55;;;;;;;9.80;5.53;;;;;;;10.56;88.98;101573.00;6083557;29;20268;-73
2022/11/10 04:40:34;;;;;;;6.80;4.37;;;;;;;10.52;89.55;101596.66;6067201;29;20244;-73
2022/11/10 04:44:14;;;;;;;8.37;5.13;;;;;;;10.53;89.42;101589.44;6069802;29;20252;-74
2022/11/10 04:47:55;;;;;;;6.23;5.57;;;;;;;10.63;88.91;101601.22;6077999;29;20229;-73
2022/11/10 04:51:36;;;;;;;13.87;7.73;;;;;;;10.58;89.92;101595.31;6080994;29;20235;-74
2022/11/10 04:55:16;;;;;;;9.70;6.17;;;;;;;10.55;89.50;101619.81;6065493;29;20252;-74
2022/11/10 04:58:56;;;;;;;8.53;5.33;;;;;;;10.51;89.71;101604.88;6071187;29;20236;-74
2022/11/10 05:02:35;;;;;;;15.77;7.80;;;;;;;10.54;90.07;101618.97;6078776;29;20244;-74
2022/11/10 05:06:17;;;;;;;8.00;5.50;;;;;;;10.49;89.76;101629.25;6069328;29;20232;-73
2022/11/10 05:09:56;;;;;;;9.30;6.50;;;;;;;10.58;89.65;101641.13;6065805;29;20236;-73
2022/11/10 05:13:35;;;;;;;14.93;7.27;;;;;;;10.53;89.47;101638.81;6071545;29;20228;-74
2022/11/10 05:17:15;;;;;;;7.40;5.70;;;;;;;10.51;89.49;101640.78;6081307;29;20236;-74
2022/11/10 05:20:54;;;;;;;10.67;6.77;;;;;;;10.44;89.96;101643.06;6073807;29;20322;-74
2022/11/10 05:24:35;;;;;;;9.40;6.10;;;;;;;10.43;90.17;101645.88;6068568;29;20318;-74
2022/11/10 05:28:15;;;;;;;10.00;5.80;;;;;;;10.40;90.39;101649.69;6087928;29;20798;-75
2022/11/10 05:31:54;;;;;;;19.00;7.97;;;;;;;10.36;90.21;101650.88;6086884;29;20510;-74
2022/11/10 05:35:34;;;;;;;13.73;5.30;;;;;;;10.34;90.28;101655.53;6074057;29;20225;-74
2022/11/10 05:39:13;;;;;;;8.13;6.53;;;;;;;10.38;90.13;101670.50;6074050;29;20236;-74
2022/11/10 05:42:54;;;;;;;8.57;4.80;;;;;;;10.39;90.29;101665.94;6084125;29;20606;-74
2022/11/10 05:46:33;;;;;;;11.63;7.10;;;;;;;10.38;89.73;101670.50;6085622;29;20229;-74
2022/11/10 05:50:13;;;;;;;10.30;6.47;;;;;;;10.34;90.08;101668.13;6073037;29;20319;-73
2022/11/10 05:53:52;;;;;;;9.13;4.93;;;;;;;10.35;90.01;101677.94;6073145;29;20248;-74
2022/11/10 05:57:32;;;;;;;7.80;6.83;;;;;;;10.36;90.21;101680.53;6085828;29;21136;-73
2022/11/10 06:01:13;;;;;;;8.37;5.67;;;;;;;10.30;90.19;101682.81;6062058;29;20235;-73
2022/11/10 06:04:53;;;;;;;6.90;5.23;;;;;;;10.31;90.17;101692.63;6067892;29;20244;-75
2022/11/10 06:08:32;;;;;;;6.70;4.40;;;;;;;10.25;90.42;101685.84;6073419;29;20236;-74
2022/11/10 06:12:11;;;;;;;9.83;5.50;;;;;;;10.25;90.51;101698.47;6079944;29;20232;-75
2022/11/10 06:15:51;;;;;;;6.60;4.80;;;;;;;10.25;90.53;101720.03;6076456;29;20268;-74
2022/11/10 06:19:31;;;;;;;8.77;5.23;;;;;;;10.21;90.13;101726.59;6071803;29;20240;-73
2022/11/10 06:23:12;;;;;;;6.83;4.93;;;;;;;10.20;90.32;101735.69;6086249;29;20232;-75
2022/11/10 06:26:52;;;;;;;5.13;4.33;;;;;;;10.15;90.39;101740.53;6079427;29;20236;-75
2022/11/10 06:30:33;;;;;;;10.03;5.63;;;;;;;10.17;90.69;101755.63;6072731;29;20248;-74
2022/11/10 06:34:12;;;;;;;6.13;5.23;;;;;;;10.18;90.11;101770.81;6077150;29;20229;-74
2022/11/10 06:38:00;;;;;;;14.80;4.43;;;;;;;10.20;90.13;101774.25;6079812;29;20244;-72
2022/11/10 06:41:40;;;;;;;7.90;5.37;;;;;;;10.23;89.89;101770.47;6063923;29;20240;-74
2022/11/10 06:45:22;;;;;;;7.03;4.73;;;;;;;10.25;90.17;101780.16;6070690;29;20562;-75
2022/11/10 06:49:01;;;;;;;6.20;4.17;;;;;;;10.22;89.69;101793.84;6071235;29;20245;-73
2022/11/10 06:52:41;;;;;;;9.20;5.00;;;;;;;10.18;89.91;101788.81;6077271;29;20334;-75
2022/11/10 06:56:22;;;;;;;8.23;5.00;;;;;;;10.17;90.00;101798.72;6064472;29;20236;-71
2022/11/10 07:00:03;;;;;;;9.00;4.80;;;;;;;10.20;89.97;101805.75;6062138;29;20656;-72
2022/11/10 07:03:42;;;;;;;6.20;4.73;;;;;;;10.14;90.02;101823.19;6065458;29;20240;-73
2022/11/10 07:07:22;;;;;;;5.00;4.03;;;;;;;10.25;90.62;101814.34;6077683;29;20245;-68
2022/11/10 07:11:01;;;;;;;5.07;4.53;;;;;;;10.15;90.42;101822.22;6069076;29;20240;-69
2022/11/10 07:14:41;;;;;;;7.20;4.63;;;;;;;10.42;90.91;101833.72;6066730;29;20521;-69
2022/11/10 07:18:22;;;;;;;6.33;4.50;;;;;;;10.20;89.98;101841.59;6071567;29;20733;-72
2022/11/10 07:22:01;;;;;;;6.80;5.20;;;;;;;10.12;90.22;101848.50;6075183;29;20244;-74
2022/11/10 07:25:41;;;;;;;4.70;3.80;;;;;;;10.14;90.36;101844.75;6069655;29;20244;-74
2022/11/10 07:29:20;;;;;;;12.40;5.37;;;;;;;10.20;90.99;101865.03;6067473;29;20240;-71
2022/11/10 07:33:03;;;;;;;12.60;6.10;;;;;;;10.21;90.49;101869.44;6077151;29;20538;-71
2022/11/10 07:36:42;;;;;;;7.53;5.77;;;;;;;10.22;90.08;101871.16;6083414;29;20240;-76
2022/11/10 07:40:21;;;;;;;7.13;5.60;;;;;;;10.29;90.02;101876.00;6063684;29;20232;-72
2022/11/10 07:44:01;;;;;;;14.37;5.63;;;;;;;10.44;90.08;101877.59;6057463;29;20235;-72
2022/11/10 07:47:40;;;;;;;8.93;5.83;;;;;;;10.43;89.81;101883.94;6075410;29;20240;-71
2022/11/10 07:51:21;;;;;;;9.50;4.63;;;;;;;10.37;90.34;101891.59;6066045;29;20268;-72
2022/11/10 07:55:01;;;;;;;9.90;5.60;;;;;;;10.34;90.40;101894.53;6076061;29;20311;-72
2022/11/10 07:58:40;;;;;;;10.20;7.00;;;;;;;10.42;90.05;101886.75;6068782;29;20236;-76
2022/11/10 08:02:19;;;;;;;9.07;6.17;;;;;;;10.44;90.34;101901.84;6070971;29;20539;-74
2022/11/10 08:05:58;;;;;;;15.03;8.03;;;;;;;10.57;90.06;101899.13;6076529;29;20283;-76
2022/11/10 08:09:39;;;;;;;8.23;5.63;;;;;;;10.61;89.76;101900.63;6072608;29;20256;-74
2022/11/10 08:13:18;;;;;;;10.00;6.00;;;;;;;10.72;89.13;101914.19;6080787;29;20228;-73
2022/11/10 08:16:57;;;;;;;10.03;6.00;;;;;;;10.78;88.70;101913.75;6076293;29;20232;-74
2022/11/10 08:20:36;;;;;;;11.00;6.63;;;;;;;10.86;88.45;101911.34;6067258;29;20233;-79
2022/11/10 08:24:16;;;;;;;13.57;7.57;;;;;;;10.75;88.96;101913.09;6070737;29;20232;-77
2022/11/10 08:28:01;;;;;;;9.10;6.57;;;;;;;10.87;88.84;101917.59;6087122;29;20232;-76
2022/11/10 08:31:41;;;;;;;8.53;4.70;;;;;;;10.89;88.94;101926.47;6084258;29;20540;-74
2022/11/10 08:35:24;;;;;;;11.60;5.83;;;;;;;10.96;89.09;101942.06;6065725;29;20237;-75
2022/11/10 08:39:03;;;;;;;7.80;5.73;;;;;;;11.07;88.67;101941.28;6067833;29;20232;-74
2022/11/10 08:42:43;;;;;;;7.87;6.60;;;;;;;11.20;87.33;101939.41;6077053;29;20248;-73
2022/11/10 08:46:23;;;;;;;8.77;6.50;;;;;;;11.13;87.87;101941.69;6067245;29;20622;-72
2022/11/10 08:50:03;;;;;;;9.17;5.57;;;;;;;11.22;88.02;101948.25;6063434;29;20236;-72
2022/11/10 08:53:43;;;;;;;8.77;5.77;;;;;;;11.15;87.46;101947.84;6062401;29;20259;-72
2022/11/10 08:57:22;;;;;;;7.67;5.47;;;;;;;11.21;87.64;101960.00;6069325;29;20544;-71
2022/11/10 09:01:02;;;;;;;8.40;6.40;;;;;;;11.48;86.81;101970.59;6058565;29;20256;-73
2022/11/10 09:04:43;;;;;;;8.90;5.67;;;;;;;11.37;87.09;101962.44;6072546;29;20236;-71
2022/11/10 09:08:23;;;;;;;7.80;6.33;;;;;;;11.35;87.86;101948.19;6087128;29;20260;-75
2022/11/10 09:12:02;;;;;;;11.97;6.80;;;;;;;11.29;87.57;101963.00;6082411;29;20534;-72
2022/11/10 09:15:43;;;;;;;10.43;6.97;;;;;;;11.26;88.36;101960.53;6058127;29;22447;-74
2022/11/10 09:19:22;;;;;;;9.67;6.53;;;;;;;11.44;87.27;101977.19;6067744;29;20251;-71
2022/11/10 09:23:06;;;;;;;9.70;5.83;;;;;;;11.48;86.77;101976.84;6075684;29;20622;-70
2022/11/10 09:26:46;;;;;;;10.63;6.53;;;;;;;11.53;87.05;101981.91;6072466;29;20236;-71
2022/11/10 09:30:27;;;;;;;9.33;6.33;;;;;;;11.84;86.45;101979.50;6070991;29;20264;-72
2022/11/10 09:34:06;;;;;;;11.20;5.93;;;;;;;12.75;80.92;101985.81;6068308;29;20255;-74
2022/11/10 09:37:46;;;;;;;8.87;5.47;;;;;;;13.31;79.02;101992.06;6079505;29;20228;-75
2022/11/10 09:41:28;;;;;;;8.20;5.13;;;;;;;12.42;81.79;101997.47;6070858;29;20229;-72
2022/11/10 09:45:20;;;;;;;10.07;6.97;;;;;;;12.09;83.97;101992.00;6071654;29;20245;-69
2022/11/10 09:49:07;;;;;;;9.20;5.50;;;;;;;12.05;84.22;102004.03;6072383;29;22871;-78
2022/11/10 09:52:49;;;;;;;13.43;5.60;;;;;;;12.19;83.19;102011.06;6072627;29;20236;-75
2022/11/10 09:56:32;;;;;;;9.37;4.90;;;;;;;12.03;83.76;102014.97;6048444;29;20232;-73
2022/11/10 10:00:17;;;;;;;8.33;5.53;;;;;;;11.91;84.37;102037.50;6068699;29;20236;-75
2022/11/10 10:04:06;;;;;;;12.90;5.03;;;;;;;12.01;84.48;102026.88;6063637;29;20267;-78
2022/11/10 10:07:51;;;;;;;15.80;6.53;;;;;;;12.09;83.84;102050.59;6082284;29;20240;-71
2022/11/10 10:11:43;;;;;;;6.57;5.17;;;;;;;12.46;81.95;102020.59;6050105;29;20236;-75
2022/11/10 10:15:30;;;;;;;6.70;5.63;;;;;;;12.12;83.23;102029.59;6065208;29;20804;-74
2022/11/10 10:19:20;;;;;;;5.73;4.87;;;;;;;12.18;83.02;102039.97;6070366;29;20293;-72
2022/11/10 10:23:11;;;;;;;10.07;5.03;;;;;;;12.53;82.16;102035.38;6090349;29;20236;-71
2022/11/10 10:26:54;;;;;;;7.40;4.90;;;;;;;12.83;80.44;102042.88;6085421;29;20240;-76
2022/11/10 10:30:33;;;;;;;8.53;5.17;;;;;;;12.68;80.55;102044.97;6072424;29;20234;-77
2022/11/10 10:34:15;;;;;;;9.27;5.70;;;;;;;12.71;81.26;102046.56;6078960;29;20563;-73
2022/11/10 10:37:57;;;;;;;10.07;5.53;;;;;;;12.93;80.75;102040.31;6085044;29;20232;-74
2022/11/10 10:41:37;;;;;;;7.70;4.97;;;;;;;12.67;81.07;102051.38;6086374;29;20518;-72
2022/11/10 10:45:22;;;;;;;10.70;4.20;;;;;;;13.16;79.25;102052.91;6073043;29;20228;-75
2022/11/10 10:49:13;;;;;;;5.20;3.60;;;;;;;13.34;77.74;102062.25;6079595;29;20261;-74
2022/11/10 10:53:23;;;;;;;8.20;4.57;;;;;;;13.29;78.35;102057.19;6081633;29;20267;-74
2022/11/10 10:57:04;;;;;;;10.37;5.27;;;;;;;13.22;78.80;102066.81;6021503;29;20551;-72
2022/11/10 11:00:46;;;;;;;14.13;4.43;;;;;;;13.24;78.63;102062.13;6077963;29;20228;-72
2022/11/10 11:04:29;;;;;;;18.13;6.70;;;;;;;12.97;79.94;102061.63;6065475;29;20815;-70
2022/11/10 11:08:17;;;;;;;8.93;5.53;;;;;;;13.16;78.66;102074.56;6080874;29;20237;-73
2022/11/10 11:12:03;;;;;;;7.00;5.37;;;;;;;12.99;80.11;102080.44;6086129;29;20236;-73
2022/11/10 11:15:42;;;;;;;10.03;5.30;;;;;;;12.61;81.24;102078.91;6065027;29;20261;-73
2022/11/10 11:19:25;;;;;;;8.70;3.57;;;;;;;12.71;80.52;102088.03;6069121;29;20263;-74
2022/11/10 11:23:14;;;;;;;10.20;5.97;;;;;;;12.94;79.90;102088.03;6084221;29;20236;-74
2022/11/10 11:27:00;;;;;;;8.07;4.60;;;;;;;12.77;80.34;102086.66;6078770;29;20252;-72
2022/11/10 11:30:53;;;;;;;10.07;3.60;;;;;;;12.92;79.84;102098.13;6071901;29;20228;-74
2022/11/10 11:34:43;;;;;;;10.13;4.90;;;;;;;12.90;79.64;102097.41;6076825;29;20262;-74
2022/11/10 11:38:32;;;;;;;10.27;5.30;;;;;;;12.82;80.28;102101.59;6089931;29;20260;-73
2022/11/10 11:42:26;;;;;;;9.43;6.70;;;;;;;12.98;79.71;102097.66;6073831;29;20267;-71
2022/11/10 11:46:16;;;;;;;8.77;5.73;;;;;;;12.84;80.17;102102.31;6065999;29;21073;-72
2022/11/10 11:50:11;;;;;;;5.43;4.53;;;;;;;12.93;79.62;102091.75;6065958;29;20272;-71
2022/11/10 11:54:26;;;;;;;6.30;3.97;;;;;;;13.03;79.20;102115.25;6072163;29;20243;-74
2022/11/10 11:58:24;;;;;;;4.97;3.60;;;;;;;13.09;78.56;102105.81;6079773;29;20256;-72
2022/11/10 12:02:23;;;;;;;11.03;5.33;;;;;;;13.04;78.87;102105.31;6080523;29;20260;-71
2022/11/10 12:06:21;;;;;;;13.37;4.30;;;;;;;13.14;78.48;102099.03;6070292;29;20240;-71
2022/11/10 12:10:16;;;;;;;16.00;6.50;;;;;;;13.34;78.04;102106.44;6068349;29;20255;-73
2022/11/10 12:14:05;;;;;;;6.20;4.50;;;;;;;13.50;77.18;102108.75;6063505;29;20260;-73
2022/11/10 12:17:56;;;;;;;7.63;4.53;;;;;;;13.53;77.16;102103.97;6070353;29;20241;-75
2022/11/10 12:21:45;;;;;;;4.53;3.30;;;;;;;13.37;77.13;102113.47;6072761;29;20240;-72
2022/11/10 12:25:30;;;;;;;7.03;3.17;;;;;;;13.42;77.38;102106.69;6065251;29;20293;-73
2022/11/10 12:29:21;;;;;;;6.50;3.93;;;;;;;13.55;76.79;102112.84;6075758;29;20256;-75
2022/11/10 12:33:07;;;;;;;7.27;3.73;;;;;;;13.43;77.07;102110.25;6086606;29;20240;-69
2022/11/10 12:36:51;;;;;;;5.53;3.70;;;;;;;13.48;77.09;102111.59;6079208;29;20296;-70
2022/11/10 12:40:36;;;;;;;5.13;4.13;;;;;;;13.40;77.41;102116.78;6065478;29;20252;-71
2022/11/10 12:44:24;;;;;;;8.60;3.50;;;;;;;13.36;77.16;102112.59;6067559;29;20280;-71
2022/11/10 12:48:05;;;;;;;4.53;3.10;;;;;;;13.28;77.81;102130.44;6078052;29;20248;-74
2022/11/10 12:51:54;;;;;;;9.60;4.00;;;;;;;13.34;77.86;102133.53;6081493;29;20256;-75
2022/11/10 12:55:38;;;;;;;5.13;2.67;;;;;;;13.36;77.84;102127.97;6064325;29;20239;-72
2022/11/10 12:59:28;;;;;;;4.83;2.50;;;;;;;13.30;77.79;102140.19;6064142;29;20260;-76
2022/11/10 13:03:25;;;;;;;4.17;2.67;;;;;;;13.30;77.86;102142.88;6077770;29;20244;-74
2022/11/10 13:07:06;;;;;;;7.23;3.30;;;;;;;13.30;77.86;102142.88;6064565;29;20239;-77
2022/11/10 13:10:55;;;;;;;10.63;4.33;;;;;;;13.30;77.89;102158.28;6070433;29;20240;-74
2022/11/10 13:14:34;;;;;;;7.93;3.10;;;;;;;13.30;78.22;102167.25;6064538;29;20252;-75
2022/11/10 13:18:23;;;;;;;4.67;3.23;;;;;;;13.30;78.26;102152.84;6075362;29;20236;-73
2022/11/10 13:22:11;;;;;;;5.03;3.40;;;;;;;13.28;78.30;102171.94;6074585;29;20259;-74
2022/11/10 13:25:53;;;;;;;6.73;3.10;;;;;;;13.28;78.20;102177.34;6071978;29;20259;-71
2022/11/10 13:29:35;;;;;;;3.50;3.20;;;;;;;13.26;78.54;102176.63;6075108;29;20248;-72
2022/11/10 13:33:35;;;;;;;4.23;3.47;;;;;;;13.29;78.38;102170.06;6087173;29;20252;-73
2022/11/10 13:37:49;;;;;;;10.77;2.83;;;;;;;13.33;78.66;102185.97;6084381;29;20542;-74
2022/11/10 13:41:33;;;;;;;5.33;3.17;;;;;;;13.30;78.50;102182.66;6023309;29;20242;-75
2022/11/10 13:45:28;;;;;;;5.10;3.50;;;;;;;13.29;78.58;102170.06;6081592;29;20819;-75
2022/11/10 13:49:20;;;;;;;7.47;2.30;;;;;;;13.34;78.77;102185.00;6073547;29;20240;-73
2022/11/10 13:53:19;;;;;;;6.03;4.37;;;;;;;13.36;78.82;102187.56;6088424;29;20233;-74
2022/11/10 13:57:21;;;;;;;10.10;3.23;;;;;;;13.38;78.31;102205.44;6083407;29;20240;-80
2022/11/10 14:01:21;;;;;;;6.63;3.10;;;;;;;13.49;78.79;102196.47;6072974;29;20232;-77
2022/11/10 14:05:01;;;;;;;4.70;2.50;;;;;;;13.52;78.30;102198.91;6071220;29;21120;-72
2022/11/10 14:08:49;;;;;;;4.07;2.63;;;;;;;13.61;78.08;102192.75;6066155;29;20260;-72
2022/11/10 14:12:34;;;;;;;8.47;3.03;;;;;;;13.60;78.29;102205.44;6074484;29;20236;-71
2022/11/10 14:16:18;;;;;;;3.63;2.13;;;;;;;13.55;78.16;102198.66;6069391;29;20236;-70
2022/11/10 14:19:58;;;;;;;3.60;3.00;;;;;;;13.59;77.87;102202.84;6069289;29;20228;-71
2022/11/10 14:23:49;;;;;;;4.10;2.30;;;;;;;13.53;77.95;102200.63;6078834;29;20228;-70
2022/11/10 14:27:31;;;;;;;8.83;2.93;;;;;;;13.51;77.80;102202.59;6083441;29;20607;-75
2022/11/10 14:31:19;;;;;;;5.80;2.83;;;;;;;13.45;77.75;102201.25;6072389;29;20237;-72
2022/11/10 14:34:59;;;;;;;3.33;2.57;;;;;;;13.50;78.02;102193.63;6077334;29;20666;-72
2022/11/10 14:38:44;;;;;;;8.80;3.27;;;;;;;13.52;77.83;102190.78;6076571;29;20240;-74
2022/11/10 14:42:28;;;;;;;8.47;1.90;;;;;;;13.53;77.29;102193.38;6083948;29;20690;-73
2022/11/10 14:46:07;;;;;;;4.67;3.13;;;;;;;13.55;77.08;102193.25;6072243;29;20782;-74
2022/11/10 14:49:47;;;;;;;13.40;3.13;;;;;;;13.58;76.88;102193.84;6076956;29;20260;-73
2022/11/10 14:53:30;;;;;;;5.80;2.70;;;;;;;13.60;76.41;102207.31;6093109;29;20232;-75
2022/11/10 14:57:17;;;;;;;2.27;2.03;;;;;;;13.57;76.43;102205.69;6090305;29;20597;-75
2022/11/10 15:00:59;;;;;;;12.53;3.20;;;;;;;13.60;76.69;102196.47;6075802;29;20220;-76
2022/11/10 15:04:39;;;;;;;2.43;2.23;;;;;;;13.60;75.95;102229.81;6073111;29;20697;-75
2022/11/10 15:08:19;;;;;;;5.27;4.37;;;;;;;13.59;75.76;102247.09;6085539;29;20236;-75
2022/11/10 15:12:20;;;;;;;8.17;4.73;;;;;;;13.63;76.35;102245.84;6066477;29;20232;-77
2022/11/10 15:16:24;;;;;;;6.03;2.23;;;;;;;13.60;76.24;102248.78;6068313;29;20233;-77
2022/11/10 15:20:03;;;;;;;5.57;2.43;;;;;;;13.58;76.69;102253.47;6079166;29;20232;-79
2022/11/10 15:23:45;;;;;;;6.27;1.97;;;;;;;13.57;76.49;102242.75;6075411;29;20232;-78
2022/11/10 15:27:27;;;;;;;9.30;4.13;;;;;;;13.60;76.39;102251.50;6094387;29;20563;-78
2022/11/10 15:31:10;;;;;;;6.60;1.93;;;;;;;13.60;76.39;102254.22;6067862;29;20232;-78
2022/11/10 15:34:51;;;;;;;5.93;2.27;;;;;;;13.60;76.64;102259.63;6077058;29;20236;-77
2022/11/10 15:38:33;;;;;;;14.33;2.20;;;;;;;13.64;75.91;102262.97;6084283;29;20229;-75
2022/11/10 15:42:15;;;;;;;5.13;2.43;;;;;;;13.61;76.19;102261.38;6092266;29;20240;-77
2022/11/10 15:45:58;;;;;;;5.57;3.07;;;;;;;13.62;76.13;102271.22;6076735;29;20225;-76
2022/11/10 15:49:38;;;;;;;4.63;2.67;;;;;;;13.64;76.00;102250.25;6078592;29;20725;-77
2022/11/10 15:53:24;;;;;;;4.97;1.83;;;;;;;13.65;75.70;102259.28;6087501;29;20244;-79
2022/11/10 15:57:03;;;;;;;6.63;1.97;;;;;;;13.71;75.35;102266.03;6088101;29;20257;-76
2022/11/10 16:00:42;;;;;;;6.90;2.30;;;;;;;13.66;75.47;102261.00;6070773;29;20618;-76
2022/11/10 16:04:22;;;;;;;8.17;2.43;;;;;;;13.71;75.21;102268.75;6080599;29;20224;-76
2022/11/10 16:08:01;;;;;;;5.07;1.70;;;;;;;13.71;75.30;102266.91;6087352;29;20671;-77
2022/11/10 16:11:44;;;;;;;3.43;1.87;;;;;;;13.71;75.20;102274.16;6088571;29;20291;-77
2022/11/10 16:15:23;;;;;;;5.43;1.90;;;;;;;13.73;75.26;102278.50;6072532;29;20233;-77
2022/11/10 16:19:03;;;;;;;11.83;3.03;;;;;;;13.74;75.27;102268.53;6074913;29;20647;-77
2022/11/10 16:22:42;;;;;;;3.13;2.83;;;;;;;13.76;74.97;102267.41;6084134;29;20233;-76
2022/11/10 16:26:25;;;;;;;4.43;1.77;;;;;;;13.79;74.70;102271.72;6074498;29;20256;-78
2022/11/10 16:30:12;;;;;;;4.83;3.20;;;;;;;13.81;74.79;102267.06;6077694;29;20688;-76
2022/11/10 16:33:51;;;;;;;4.80;1.70;;;;;;;13.81;74.58;102265.19;6074328;29;20252;-77
2022/11/10 16:37:31;;;;;;;5.03;3.17;;;;;;;13.83;74.48;102273.22;6085427;29;20232;-75
2022/11/10 16:41:12;;;;;;;4.27;1.30;;;;;;;13.83;74.65;102273.22;6080433;29;20240;-77
2022/11/10 16:44:51;;;;;;;4.43;1.63;;;;;;;13.84;74.47;102267.66;6076152;29;20694;-76
2022/11/10 16:48:35;;;;;;;3.77;1.80;;;;;;;13.86;74.47;102281.94;6087422;29;20228;-77
2022/11/10 16:52:16;;;;;;;4.53;1.80;;;;;;;13.90;74.04;102274.44;6089308;29;20246;-77
2022/11/10 16:55:55;;;;;;;3.60;1.30;;;;;;;13.92;73.66;102313.13;6080880;29;20225;-77
2022/11/10 16:59:34;;;;;;;4.83;1.63;;;;;;;13.93;73.64;102287.75;6075194;29;20228;-77
2022/11/10 17:03:17;;;;;;;4.37;2.23;;;;;;;13.96;73.68;102292.91;6076265;29;20608;-71
2022/11/10 17:06:58;;;;;;;2.83;2.27;;;;;;;13.98;73.95;102294.50;6074905;29;21132;-71
2022/11/10 17:10:37;;;;;;;3.60;1.53;;;;;;;14.05;73.70;102284.91;6072845;29;20228;-72
2022/11/10 17:14:17;;;;;;;7.00;2.50;;;;;;;14.04;73.40;102298.59;6077177;29;20618;-75
2022/11/10 17:17:57;;;;;;;8.50;2.57;;;;;;;14.03;73.03;102299.56;6094340;29;20224;-73
2022/11/10 17:21:37;;;;;;;4.90;1.83;;;;;;;14.04;73.22;102298.59;6086051;29;20319;-73
2022/11/10 17:25:24;;;;;;;2.30;1.60;;;;;;;14.02;73.61;102301.41;6076531;29;20275;-77
2022/11/10 17:29:04;;;;;;;4.13;2.07;;;;;;;13.97;73.66;102298.22;6075609;29;20232;-77